sensor_id;sensor_type;location;lat;lon;timestamp;P1;durP1;ratioP1;P2;durP2;ratioP2
19854;SDS011;10088;47.946;2.532;2023-05-10T00:01:37;4.07;;;1.30;;
19854;SDS011;10088;47.946;2.532;2023-05-10T00:04:02;6.37;;;1.40;;
19854;SDS011;10088;47.946;2.532;2023-05-10T00:06:27;5.67;;;1.53;;
19854;SDS011;10088;47.946;2.532;2023-05-10T00:08:52;5.23;;;1.63;;
19854;SDS011;10088;47.946;2.532;2023-05-10T00:11:18;5.30;;;1.47;;
19854;SDS011;10088;47.946;2.532;2023-05-10T00:13:43;2.33;;;1.10;;
19854;SDS011;10088;47.946;2.532;2023-05-10T00:16:08;3.70;;;1.27;;
19854;SDS011;10088;47.946;2.532;2023-05-10T00:18:34;7.13;;;1.50;;
19854;SDS011;10088;47.946;2.532;2023-05-10T00:20:59;5.90;;;1.50;;
19854;SDS011;10088;47.946;2.532;2023-05-10T00:23:24;5.47;;;1.60;;
19854;SDS011;10088;47.946;2.532;2023-05-10T00:25:49;5.13;;;1.20;;
19854;SDS011;10088;47.946;2.532;2023-05-10T00:28:15;3.43;;;1.30;;
19854;SDS011;10088;47.946;2.532;2023-05-10T00:30:40;7.20;;;1.87;;
19854;SDS011;10088;47.946;2.532;2023-05-10T00:33:05;2.73;;;1.20;;
19854;SDS011;10088;47.946;2.532;2023-05-10T00:35:31;5.17;;;1.80;;
19854;SDS011;10088;47.946;2.532;2023-05-10T00:37:56;7.53;;;1.60;;
19854;SDS011;10088;47.946;2.532;2023-05-10T00:40:21;6.27;;;1.37;;
19854;SDS011;10088;47.946;2.532;2023-05-10T00:42:46;4.70;;;1.30;;
19854;SDS011;10088;47.946;2.532;2023-05-10T00:45:12;4.23;;;1.33;;
19854;SDS011;10088;47.946;2.532;2023-05-10T00:47:37;4.10;;;1.40;;
19854;SDS011;10088;47.946;2.532;2023-05-10T00:50:03;4.63;;;1.50;;
19854;SDS011;10088;47.946;2.532;2023-05-10T00:52:29;6.50;;;1.70;;
19854;SDS011;10088;47.946;2.532;2023-05-10T00:54:55;4.73;;;1.17;;
19854;SDS011;10088;47.946;2.532;2023-05-10T00:57:20;5.00;;;1.27;;
19854;SDS011;10088;47.946;2.532;2023-05-10T00:59:46;7.10;;;1.80;;
19854;SDS011;10088;47.946;2.532;2023-05-10T01:02:11;4.43;;;1.20;;
19854;SDS011;10088;47.946;2.532;2023-05-10T01:04:38;3.93;;;1.27;;
19854;SDS011;10088;47.946;2.532;2023-05-10T01:07:03;3.40;;;1.20;;
19854;SDS011;10088;47.946;2.532;2023-05-10T01:09:28;5.63;;;1.93;;
19854;SDS011;10088;47.946;2.532;2023-05-10T01:11:54;5.37;;;1.30;;
19854;SDS011;10088;47.946;2.532;2023-05-10T01:14:20;5.13;;;1.83;;
19854;SDS011;10088;47.946;2.532;2023-05-10T01:16:47;10.03;;;1.63;;
19854;SDS011;10088;47.946;2.532;2023-05-10T01:19:22;3.30;;;1.03;;
19854;SDS011;10088;47.946;2.532;2023-05-10T01:24:38;3.60;;;1.00;;
19854;SDS011;10088;47.946;2.532;2023-05-10T01:34:34;5.23;;;1.53;;
19854;SDS011;10088;47.946;2.532;2023-05-10T01:39:49;6.37;;;1.13;;
19854;SDS011;10088;47.946;2.532;2023-05-10T01:42:17;6.30;;;1.23;;
19854;SDS011;10088;47.946;2.532;2023-05-10T01:45:32;7.00;;;1.80;;
19854;SDS011;10088;47.946;2.532;2023-05-10T01:47:35;6.27;;;1.43;;
19854;SDS011;10088;47.946;2.532;2023-05-10T01:50:02;4.37;;;1.10;;
19854;SDS011;10088;47.946;2.532;2023-05-10T01:52:33;6.10;;;1.40;;
19854;SDS011;10088;47.946;2.532;2023-05-10T01:55:02;7.57;;;1.93;;
19854;SDS011;10088;47.946;2.532;2023-05-10T01:57:32;5.07;;;1.30;;
19854;SDS011;10088;47.946;2.532;2023-05-10T01:59:57;6.67;;;1.60;;
19854;SDS011;10088;47.946;2.532;2023-05-10T02:02:24;3.00;;;1.53;;
19854;SDS011;10088;47.946;2.532;2023-05-10T02:04:51;6.10;;;1.57;;
19854;SDS011;10088;47.946;2.532;2023-05-10T02:07:18;7.50;;;1.33;;
19854;SDS011;10088;47.946;2.532;2023-05-10T02:09:44;4.33;;;1.00;;
19854;SDS011;10088;47.946;2.532;2023-05-10T02:12:12;7.10;;;1.50;;
19854;SDS011;10088;47.946;2.532;2023-05-10T02:14:38;5.57;;;1.20;;
19854;SDS011;10088;47.946;2.532;2023-05-10T02:17:05;6.43;;;1.57;;
19854;SDS011;10088;47.946;2.532;2023-05-10T02:19:32;7.53;;;1.70;;
19854;SDS011;10088;47.946;2.532;2023-05-10T02:21:57;5.43;;;1.53;;
19854;SDS011;10088;47.946;2.532;2023-05-10T02:24:23;4.47;;;1.70;;
19854;SDS011;10088;47.946;2.532;2023-05-10T02:26:49;5.33;;;1.40;;
19854;SDS011;10088;47.946;2.532;2023-05-10T02:29:16;4.77;;;1.37;;
19854;SDS011;10088;47.946;2.532;2023-05-10T02:31:42;4.70;;;1.27;;
19854;SDS011;10088;47.946;2.532;2023-05-10T02:34:08;5.70;;;1.60;;
19854;SDS011;10088;47.946;2.532;2023-05-10T02:36:34;6.93;;;1.30;;
19854;SDS011;10088;47.946;2.532;2023-05-10T02:39:00;7.07;;;1.97;;
19854;SDS011;10088;47.946;2.532;2023-05-10T02:41:26;2.70;;;1.27;;
19854;SDS011;10088;47.946;2.532;2023-05-10T02:43:52;4.40;;;1.23;;
19854;SDS011;10088;47.946;2.532;2023-05-10T02:46:21;5.73;;;1.50;;
19854;SDS011;10088;47.946;2.532;2023-05-10T02:48:46;7.13;;;1.23;;
19854;SDS011;10088;47.946;2.532;2023-05-10T02:51:12;5.53;;;1.67;;
19854;SDS011;10088;47.946;2.532;2023-05-10T02:53:40;3.53;;;1.33;;
19854;SDS011;10088;47.946;2.532;2023-05-10T02:56:09;3.90;;;1.30;;
19854;SDS011;10088;47.946;2.532;2023-05-10T02:58:36;4.87;;;1.50;;
19854;SDS011;10088;47.946;2.532;2023-05-10T03:01:01;3.63;;;1.40;;
19854;SDS011;10088;47.946;2.532;2023-05-10T03:03:26;4.70;;;1.20;;
19854;SDS011;10088;47.946;2.532;2023-05-10T03:05:52;3.80;;;1.00;;
19854;SDS011;10088;47.946;2.532;2023-05-10T03:08:20;4.37;;;1.37;;
19854;SDS011;10088;47.946;2.532;2023-05-10T03:11:01;5.23;;;1.53;;
19854;SDS011;10088;47.946;2.532;2023-05-10T03:13:40;4.77;;;1.07;;
19854;SDS011;10088;47.946;2.532;2023-05-10T03:16:10;3.87;;;1.40;;
19854;SDS011;10088;47.946;2.532;2023-05-10T03:18:41;5.63;;;1.50;;
19854;SDS011;10088;47.946;2.532;2023-05-10T03:21:07;4.30;;;1.20;;
19854;SDS011;10088;47.946;2.532;2023-05-10T03:23:44;4.67;;;1.30;;
19854;SDS011;10088;47.946;2.532;2023-05-10T03:26:13;4.80;;;1.60;;
19854;SDS011;10088;47.946;2.532;2023-05-10T03:28:42;6.97;;;1.40;;
19854;SDS011;10088;47.946;2.532;2023-05-10T03:31:07;3.60;;;1.10;;
19854;SDS011;10088;47.946;2.532;2023-05-10T03:33:33;5.80;;;1.20;;
19854;SDS011;10088;47.946;2.532;2023-05-10T03:35:58;3.87;;;1.40;;
19854;SDS011;10088;47.946;2.532;2023-05-10T03:38:23;2.67;;;1.77;;
19854;SDS011;10088;47.946;2.532;2023-05-10T03:40:48;2.93;;;1.00;;
19854;SDS011;10088;47.946;2.532;2023-05-10T03:43:14;6.10;;;1.43;;
19854;SDS011;10088;47.946;2.532;2023-05-10T03:45:39;6.57;;;1.17;;
19854;SDS011;10088;47.946;2.532;2023-05-10T03:48:04;7.77;;;2.07;;
19854;SDS011;10088;47.946;2.532;2023-05-10T03:50:30;6.17;;;1.70;;
19854;SDS011;10088;47.946;2.532;2023-05-10T03:52:55;7.27;;;1.33;;
19854;SDS011;10088;47.946;2.532;2023-05-10T03:55:21;4.93;;;1.30;;
19854;SDS011;10088;47.946;2.532;2023-05-10T03:57:47;5.57;;;1.40;;
19854;SDS011;10088;47.946;2.532;2023-05-10T04:00:14;7.53;;;1.70;;
19854;SDS011;10088;47.946;2.532;2023-05-10T04:02:39;10.40;;;1.40;;
19854;SDS011;10088;47.946;2.532;2023-05-10T04:05:05;6.53;;;1.73;;
19854;SDS011;10088;47.946;2.532;2023-05-10T04:07:30;9.83;;;3.40;;
19854;SDS011;10088;47.946;2.532;2023-05-10T04:09:57;5.30;;;1.50;;
19854;SDS011;10088;47.946;2.532;2023-05-10T04:12:22;6.60;;;1.33;;
19854;SDS011;10088;47.946;2.532;2023-05-10T04:14:48;3.90;;;1.40;;
19854;SDS011;10088;47.946;2.532;2023-05-10T04:17:13;9.07;;;1.40;;
19854;SDS011;10088;47.946;2.532;2023-05-10T04:19:38;5.77;;;1.50;;
19854;SDS011;10088;47.946;2.532;2023-05-10T04:22:03;6.00;;;1.70;;
19854;SDS011;10088;47.946;2.532;2023-05-10T04:24:29;2.90;;;1.80;;
19854;SDS011;10088;47.946;2.532;2023-05-10T04:26:54;6.10;;;1.30;;
19854;SDS011;10088;47.946;2.532;2023-05-10T04:29:20;9.10;;;1.83;;
19854;SDS011;10088;47.946;2.532;2023-05-10T04:31:45;4.93;;;1.30;;
19854;SDS011;10088;47.946;2.532;2023-05-10T04:34:10;5.50;;;1.67;;
19854;SDS011;10088;47.946;2.532;2023-05-10T04:36:36;7.00;;;1.77;;
19854;SDS011;10088;47.946;2.532;2023-05-10T04:39:02;5.60;;;1.40;;
19854;SDS011;10088;47.946;2.532;2023-05-10T04:41:28;8.13;;;1.73;;
19854;SDS011;10088;47.946;2.532;2023-05-10T04:43:53;5.27;;;1.20;;
19854;SDS011;10088;47.946;2.532;2023-05-10T04:46:18;4.83;;;1.20;;
19854;SDS011;10088;47.946;2.532;2023-05-10T04:48:44;8.60;;;2.03;;
19854;SDS011;10088;47.946;2.532;2023-05-10T04:51:09;6.63;;;2.07;;
19854;SDS011;10088;47.946;2.532;2023-05-10T04:53:34;6.67;;;1.77;;
19854;SDS011;10088;47.946;2.532;2023-05-10T04:56:00;6.67;;;1.50;;
19854;SDS011;10088;47.946;2.532;2023-05-10T04:58:25;8.07;;;1.40;;
19854;SDS011;10088;47.946;2.532;2023-05-10T05:00:51;6.30;;;1.97;;
19854;SDS011;10088;47.946;2.532;2023-05-10T05:03:16;9.37;;;1.60;;
19854;SDS011;10088;47.946;2.532;2023-05-10T05:05:41;11.27;;;2.57;;
19854;SDS011;10088;47.946;2.532;2023-05-10T05:08:06;3.37;;;1.37;;
19854;SDS011;10088;47.946;2.532;2023-05-10T05:10:32;7.20;;;1.60;;
19854;SDS011;10088;47.946;2.532;2023-05-10T05:12:57;5.07;;;1.53;;
19854;SDS011;10088;47.946;2.532;2023-05-10T05:15:22;7.40;;;1.47;;
19854;SDS011;10088;47.946;2.532;2023-05-10T05:17:48;9.97;;;2.10;;
19854;SDS011;10088;47.946;2.532;2023-05-10T05:20:13;7.47;;;1.90;;
19854;SDS011;10088;47.946;2.532;2023-05-10T05:22:39;8.60;;;1.90;;
19854;SDS011;10088;47.946;2.532;2023-05-10T05:25:04;6.40;;;1.80;;
19854;SDS011;10088;47.946;2.532;2023-05-10T05:27:30;7.50;;;1.77;;
19854;SDS011;10088;47.946;2.532;2023-05-10T05:29:56;9.87;;;1.87;;
19854;SDS011;10088;47.946;2.532;2023-05-10T05:32:22;7.50;;;2.27;;
19854;SDS011;10088;47.946;2.532;2023-05-10T05:34:47;10.47;;;2.07;;
19854;SDS011;10088;47.946;2.532;2023-05-10T05:37:17;6.40;;;2.00;;
19854;SDS011;10088;47.946;2.532;2023-05-10T05:39:42;7.53;;;2.53;;
19854;SDS011;10088;47.946;2.532;2023-05-10T05:42:08;5.63;;;1.50;;
19854;SDS011;10088;47.946;2.532;2023-05-10T05:44:34;10.33;;;2.00;;
19854;SDS011;10088;47.946;2.532;2023-05-10T05:46:59;6.90;;;1.70;;
19854;SDS011;10088;47.946;2.532;2023-05-10T05:49:24;8.30;;;1.70;;
19854;SDS011;10088;47.946;2.532;2023-05-10T05:51:50;8.77;;;2.00;;
19854;SDS011;10088;47.946;2.532;2023-05-10T05:54:15;8.53;;;1.87;;
19854;SDS011;10088;47.946;2.532;2023-05-10T05:56:40;12.87;;;2.50;;
19854;SDS011;10088;47.946;2.532;2023-05-10T05:59:06;10.87;;;1.97;;
19854;SDS011;10088;47.946;2.532;2023-05-10T06:01:31;11.30;;;1.80;;
19854;SDS011;10088;47.946;2.532;2023-05-10T06:03:56;7.00;;;1.63;;
19854;SDS011;10088;47.946;2.532;2023-05-10T06:06:21;9.27;;;2.80;;
19854;SDS011;10088;47.946;2.532;2023-05-10T06:08:47;7.13;;;1.73;;
19854;SDS011;10088;47.946;2.532;2023-05-10T06:11:12;5.83;;;1.50;;
19854;SDS011;10088;47.946;2.532;2023-05-10T06:13:37;7.17;;;1.73;;
19854;SDS011;10088;47.946;2.532;2023-05-10T06:16:03;4.70;;;1.30;;
19854;SDS011;10088;47.946;2.532;2023-05-10T06:18:28;3.63;;;1.20;;
19854;SDS011;10088;47.946;2.532;2023-05-10T06:20:53;6.47;;;1.57;;
19854;SDS011;10088;47.946;2.532;2023-05-10T06:23:18;4.97;;;1.30;;
19854;SDS011;10088;47.946;2.532;2023-05-10T06:25:44;3.37;;;1.20;;
19854;SDS011;10088;47.946;2.532;2023-05-10T06:28:09;4.97;;;1.47;;
19854;SDS011;10088;47.946;2.532;2023-05-10T06:30:35;7.07;;;1.50;;
19854;SDS011;10088;47.946;2.532;2023-05-10T06:33:01;7.17;;;1.30;;
19854;SDS011;10088;47.946;2.532;2023-05-10T06:35:26;7.60;;;1.57;;
19854;SDS011;10088;47.946;2.532;2023-05-10T06:37:51;6.10;;;2.03;;
19854;SDS011;10088;47.946;2.532;2023-05-10T06:40:17;4.77;;;1.40;;
19854;SDS011;10088;47.946;2.532;2023-05-10T06:42:42;6.63;;;1.10;;
19854;SDS011;10088;47.946;2.532;2023-05-10T06:45:07;3.90;;;1.47;;
19854;SDS011;10088;47.946;2.532;2023-05-10T06:47:33;6.70;;;1.30;;
19854;SDS011;10088;47.946;2.532;2023-05-10T06:49:58;3.47;;;1.40;;
19854;SDS011;10088;47.946;2.532;2023-05-10T06:52:24;4.93;;;1.10;;
19854;SDS011;10088;47.946;2.532;2023-05-10T06:54:49;4.80;;;1.40;;
19854;SDS011;10088;47.946;2.532;2023-05-10T06:57:15;3.87;;;1.23;;
19854;SDS011;10088;47.946;2.532;2023-05-10T06:59:40;6.93;;;1.70;;
19854;SDS011;10088;47.946;2.532;2023-05-10T07:02:05;3.63;;;1.30;;
19854;SDS011;10088;47.946;2.532;2023-05-10T07:04:31;3.90;;;1.37;;
19854;SDS011;10088;47.946;2.532;2023-05-10T07:06:56;3.87;;;1.47;;
19854;SDS011;10088;47.946;2.532;2023-05-10T07:09:22;7.20;;;1.27;;
19854;SDS011;10088;47.946;2.532;2023-05-10T07:11:49;5.70;;;1.57;;
19854;SDS011;10088;47.946;2.532;2023-05-10T07:14:14;6.00;;;1.93;;
19854;SDS011;10088;47.946;2.532;2023-05-10T07:16:40;10.63;;;2.07;;
19854;SDS011;10088;47.946;2.532;2023-05-10T07:19:05;9.00;;;1.97;;
19854;SDS011;10088;47.946;2.532;2023-05-10T07:21:31;5.93;;;1.83;;
19854;SDS011;10088;47.946;2.532;2023-05-10T07:23:56;9.13;;;2.40;;
19854;SDS011;10088;47.946;2.532;2023-05-10T07:26:21;6.43;;;2.17;;
19854;SDS011;10088;47.946;2.532;2023-05-10T07:28:47;10.00;;;2.70;;
19854;SDS011;10088;47.946;2.532;2023-05-10T07:31:12;7.40;;;1.87;;
19854;SDS011;10088;47.946;2.532;2023-05-10T07:33:37;9.47;;;1.90;;
19854;SDS011;10088;47.946;2.532;2023-05-10T07:36:03;18.93;;;3.07;;
19854;SDS011;10088;47.946;2.532;2023-05-10T07:38:28;7.17;;;1.90;;
19854;SDS011;10088;47.946;2.532;2023-05-10T07:40:53;13.00;;;2.70;;
19854;SDS011;10088;47.946;2.532;2023-05-10T07:43:19;8.90;;;2.40;;
19854;SDS011;10088;47.946;2.532;2023-05-10T07:45:44;10.83;;;3.00;;
19854;SDS011;10088;47.946;2.532;2023-05-10T07:48:09;15.80;;;2.80;;
19854;SDS011;10088;47.946;2.532;2023-05-10T07:50:35;11.10;;;2.90;;
19854;SDS011;10088;47.946;2.532;2023-05-10T07:53:00;21.83;;;3.53;;
19854;SDS011;10088;47.946;2.532;2023-05-10T07:55:25;13.20;;;2.80;;
19854;SDS011;10088;47.946;2.532;2023-05-10T07:57:51;9.47;;;2.63;;
19854;SDS011;10088;47.946;2.532;2023-05-10T08:00:17;9.03;;;2.80;;
19854;SDS011;10088;47.946;2.532;2023-05-10T08:02:42;13.77;;;2.53;;
19854;SDS011;10088;47.946;2.532;2023-05-10T08:05:07;13.23;;;2.40;;
19854;SDS011;10088;47.946;2.532;2023-05-10T08:07:33;10.97;;;3.23;;
19854;SDS011;10088;47.946;2.532;2023-05-10T08:09:58;9.77;;;2.87;;
19854;SDS011;10088;47.946;2.532;2023-05-10T08:12:23;13.27;;;3.00;;
19854;SDS011;10088;47.946;2.532;2023-05-10T08:14:49;14.60;;;3.10;;
19854;SDS011;10088;47.946;2.532;2023-05-10T08:17:14;12.97;;;2.87;;
19854;SDS011;10088;47.946;2.532;2023-05-10T08:19:39;16.43;;;3.60;;
19854;SDS011;10088;47.946;2.532;2023-05-10T08:22:05;14.87;;;3.13;;
19854;SDS011;10088;47.946;2.532;2023-05-10T08:24:30;13.47;;;3.33;;
19854;SDS011;10088;47.946;2.532;2023-05-10T08:26:55;18.00;;;3.23;;
19854;SDS011;10088;47.946;2.532;2023-05-10T08:29:21;15.77;;;3.27;;
19854;SDS011;10088;47.946;2.532;2023-05-10T08:31:46;13.77;;;3.20;;
19854;SDS011;10088;47.946;2.532;2023-05-10T08:34:11;13.80;;;2.70;;
19854;SDS011;10088;47.946;2.532;2023-05-10T08:36:37;12.07;;;3.17;;
19854;SDS011;10088;47.946;2.532;2023-05-10T08:39:02;14.67;;;2.60;;
19854;SDS011;10088;47.946;2.532;2023-05-10T08:41:27;14.93;;;3.40;;
19854;SDS011;10088;47.946;2.532;2023-05-10T08:43:53;11.73;;;2.97;;
19854;SDS011;10088;47.946;2.532;2023-05-10T08:46:19;11.60;;;3.23;;
19854;SDS011;10088;47.946;2.532;2023-05-10T08:48:45;10.20;;;3.37;;
19854;SDS011;10088;47.946;2.532;2023-05-10T08:51:15;11.90;;;2.63;;
19854;SDS011;10088;47.946;2.532;2023-05-10T08:53:41;15.67;;;3.20;;
19854;SDS011;10088;47.946;2.532;2023-05-10T08:56:06;8.97;;;2.33;;
19854;SDS011;10088;47.946;2.532;2023-05-10T08:58:32;8.07;;;2.23;;
19854;SDS011;10088;47.946;2.532;2023-05-10T09:00:57;15.83;;;3.30;;
19854;SDS011;10088;47.946;2.532;2023-05-10T09:03:23;14.83;;;2.83;;
19854;SDS011;10088;47.946;2.532;2023-05-10T09:05:48;11.57;;;3.33;;
19854;SDS011;10088;47.946;2.532;2023-05-10T09:08:14;10.03;;;2.83;;
19854;SDS011;10088;47.946;2.532;2023-05-10T09:10:41;9.73;;;2.40;;
19854;SDS011;10088;47.946;2.532;2023-05-10T09:13:08;11.73;;;2.87;;
19854;SDS011;10088;47.946;2.532;2023-05-10T09:15:34;11.97;;;2.97;;
19854;SDS011;10088;47.946;2.532;2023-05-10T09:17:59;10.60;;;2.93;;
19854;SDS011;10088;47.946;2.532;2023-05-10T09:20:27;12.50;;;3.37;;
19854;SDS011;10088;47.946;2.532;2023-05-10T09:22:52;10.50;;;3.03;;
19854;SDS011;10088;47.946;2.532;2023-05-10T09:25:18;11.93;;;2.70;;
19854;SDS011;10088;47.946;2.532;2023-05-10T09:27:47;14.90;;;2.93;;
19854;SDS011;10088;47.946;2.532;2023-05-10T09:30:30;8.90;;;2.23;;
19854;SDS011;10088;47.946;2.532;2023-05-10T09:32:57;12.27;;;2.83;;
19854;SDS011;10088;47.946;2.532;2023-05-10T09:35:23;11.90;;;2.47;;
19854;SDS011;10088;47.946;2.532;2023-05-10T09:37:49;13.67;;;3.43;;
19854;SDS011;10088;47.946;2.532;2023-05-10T09:40:19;11.40;;;3.10;;
19854;SDS011;10088;47.946;2.532;2023-05-10T09:45:16;10.60;;;2.70;;
19854;SDS011;10088;47.946;2.532;2023-05-10T09:47:41;10.47;;;2.93;;
19854;SDS011;10088;47.946;2.532;2023-05-10T09:50:07;8.97;;;2.53;;
19854;SDS011;10088;47.946;2.532;2023-05-10T09:55:13;9.57;;;2.50;;
19854;SDS011;10088;47.946;2.532;2023-05-10T09:57:38;7.80;;;2.33;;
19854;SDS011;10088;47.946;2.532;2023-05-10T10:00:04;8.30;;;2.57;;
19854;SDS011;10088;47.946;2.532;2023-05-10T10:02:30;7.57;;;2.90;;
19854;SDS011;10088;47.946;2.532;2023-05-10T10:04:55;9.60;;;2.83;;
19854;SDS011;10088;47.946;2.532;2023-05-10T10:07:24;7.97;;;2.27;;
19854;SDS011;10088;47.946;2.532;2023-05-10T10:09:50;11.67;;;2.80;;
19854;SDS011;10088;47.946;2.532;2023-05-10T10:12:16;8.27;;;2.33;;
19854;SDS011;10088;47.946;2.532;2023-05-10T10:14:41;10.43;;;2.50;;
19854;SDS011;10088;47.946;2.532;2023-05-10T10:17:07;9.60;;;2.63;;
19854;SDS011;10088;47.946;2.532;2023-05-10T10:19:32;11.30;;;2.60;;
19854;SDS011;10088;47.946;2.532;2023-05-10T10:21:58;5.07;;;2.30;;
19854;SDS011;10088;47.946;2.532;2023-05-10T10:24:24;8.87;;;2.70;;
19854;SDS011;10088;47.946;2.532;2023-05-10T10:26:49;6.87;;;2.00;;
19854;SDS011;10088;47.946;2.532;2023-05-10T10:29:25;6.00;;;2.20;;
19854;SDS011;10088;47.946;2.532;2023-05-10T10:34:41;7.83;;;2.20;;
19854;SDS011;10088;47.946;2.532;2023-05-10T10:37:06;5.97;;;2.00;;
19854;SDS011;10088;47.946;2.532;2023-05-10T10:39:31;10.27;;;2.40;;
19854;SDS011;10088;47.946;2.532;2023-05-10T10:41:57;9.77;;;2.80;;
19854;SDS011;10088;47.946;2.532;2023-05-10T10:49:26;8.40;;;2.30;;
19854;SDS011;10088;47.946;2.532;2023-05-10T10:54:35;11.90;;;2.47;;
19854;SDS011;10088;47.946;2.532;2023-05-10T10:57:10;11.77;;;2.43;;
19854;SDS011;10088;47.946;2.532;2023-05-10T10:59:40;8.33;;;2.43;;
19854;SDS011;10088;47.946;2.532;2023-05-10T11:02:06;8.10;;;2.40;;
19854;SDS011;10088;47.946;2.532;2023-05-10T11:04:40;8.43;;;2.33;;
19854;SDS011;10088;47.946;2.532;2023-05-10T11:07:15;7.20;;;2.50;;
19854;SDS011;10088;47.946;2.532;2023-05-10T11:09:41;7.17;;;1.97;;
19854;SDS011;10088;47.946;2.532;2023-05-10T11:12:08;8.90;;;2.83;;
19854;SDS011;10088;47.946;2.532;2023-05-10T11:14:33;6.77;;;2.47;;
19854;SDS011;10088;47.946;2.532;2023-05-10T11:16:59;11.20;;;2.90;;
19854;SDS011;10088;47.946;2.532;2023-05-10T11:19:27;8.20;;;2.80;;
19854;SDS011;10088;47.946;2.532;2023-05-10T11:24:30;9.10;;;2.30;;
19854;SDS011;10088;47.946;2.532;2023-05-10T11:26:55;9.93;;;3.17;;
19854;SDS011;10088;47.946;2.532;2023-05-10T11:29:21;9.77;;;2.93;;
19854;SDS011;10088;47.946;2.532;2023-05-10T11:31:47;10.43;;;2.87;;
19854;SDS011;10088;47.946;2.532;2023-05-10T11:34:23;11.93;;;2.73;;
19854;SDS011;10088;47.946;2.532;2023-05-10T11:36:55;10.30;;;2.50;;
19854;SDS011;10088;47.946;2.532;2023-05-10T11:39:21;12.10;;;2.70;;
19854;SDS011;10088;47.946;2.532;2023-05-10T11:41:49;8.60;;;2.03;;
19854;SDS011;10088;47.946;2.532;2023-05-10T11:44:15;8.53;;;2.50;;
19854;SDS011;10088;47.946;2.532;2023-05-10T11:46:40;8.27;;;2.37;;
19854;SDS011;10088;47.946;2.532;2023-05-10T11:49:06;10.40;;;2.37;;
19854;SDS011;10088;47.946;2.532;2023-05-10T11:51:35;8.17;;;2.10;;
19854;SDS011;10088;47.946;2.532;2023-05-10T11:54:08;7.20;;;2.13;;
19854;SDS011;10088;47.946;2.532;2023-05-10T11:56:34;5.37;;;2.03;;
19854;SDS011;10088;47.946;2.532;2023-05-10T11:58:59;9.30;;;2.30;;
19854;SDS011;10088;47.946;2.532;2023-05-10T12:01:27;6.83;;;2.17;;
19854;SDS011;10088;47.946;2.532;2023-05-10T12:03:53;10.30;;;2.30;;
19854;SDS011;10088;47.946;2.532;2023-05-10T12:06:19;7.23;;;2.13;;
19854;SDS011;10088;47.946;2.532;2023-05-10T12:08:45;7.53;;;1.73;;
19854;SDS011;10088;47.946;2.532;2023-05-10T12:11:11;7.20;;;2.17;;
19854;SDS011;10088;47.946;2.532;2023-05-10T12:13:41;5.23;;;1.60;;
19854;SDS011;10088;47.946;2.532;2023-05-10T12:16:16;6.40;;;1.60;;
19854;SDS011;10088;47.946;2.532;2023-05-10T12:18:41;7.40;;;1.60;;
19854;SDS011;10088;47.946;2.532;2023-05-10T12:21:13;3.97;;;1.13;;
19854;SDS011;10088;47.946;2.532;2023-05-10T12:23:38;6.90;;;1.03;;
19854;SDS011;10088;47.946;2.532;2023-05-10T12:26:04;2.60;;;1.03;;
19854;SDS011;10088;47.946;2.532;2023-05-10T12:28:30;3.07;;;1.03;;
19854;SDS011;10088;47.946;2.532;2023-05-10T12:30:57;6.97;;;1.30;;
19854;SDS011;10088;47.946;2.532;2023-05-10T12:33:22;0.87;;;0.70;;
19854;SDS011;10088;47.946;2.532;2023-05-10T12:35:52;4.30;;;0.90;;
19854;SDS011;10088;47.946;2.532;2023-05-10T12:40:50;3.87;;;0.90;;
19854;SDS011;10088;47.946;2.532;2023-05-10T12:43:15;2.17;;;0.90;;
19854;SDS011;10088;47.946;2.532;2023-05-10T12:45:40;2.57;;;1.00;;
19854;SDS011;10088;47.946;2.532;2023-05-10T12:48:05;3.07;;;0.70;;
19854;SDS011;10088;47.946;2.532;2023-05-10T12:50:30;4.90;;;1.13;;
19854;SDS011;10088;47.946;2.532;2023-05-10T12:52:56;3.97;;;1.30;;
19854;SDS011;10088;47.946;2.532;2023-05-10T12:55:21;5.17;;;1.43;;
19854;SDS011;10088;47.946;2.532;2023-05-10T12:57:46;5.30;;;1.30;;
19854;SDS011;10088;47.946;2.532;2023-05-10T13:00:11;7.20;;;2.00;;
19854;SDS011;10088;47.946;2.532;2023-05-10T13:02:37;8.60;;;2.07;;
19854;SDS011;10088;47.946;2.532;2023-05-10T13:05:02;7.47;;;1.47;;
19854;SDS011;10088;47.946;2.532;2023-05-10T13:07:28;6.00;;;1.43;;
19854;SDS011;10088;47.946;2.532;2023-05-10T13:09:53;7.63;;;2.00;;
19854;SDS011;10088;47.946;2.532;2023-05-10T13:12:18;8.80;;;2.00;;
19854;SDS011;10088;47.946;2.532;2023-05-10T13:14:43;6.43;;;1.40;;
19854;SDS011;10088;47.946;2.532;2023-05-10T13:17:09;4.03;;;1.57;;
19854;SDS011;10088;47.946;2.532;2023-05-10T13:19:34;9.00;;;1.93;;
19854;SDS011;10088;47.946;2.532;2023-05-10T13:22:00;7.70;;;2.20;;
19854;SDS011;10088;47.946;2.532;2023-05-10T13:24:25;6.60;;;2.03;;
19854;SDS011;10088;47.946;2.532;2023-05-10T13:26:50;4.27;;;1.53;;
19854;SDS011;10088;47.946;2.532;2023-05-10T13:29:15;4.13;;;1.23;;
19854;SDS011;10088;47.946;2.532;2023-05-10T13:31:42;7.77;;;1.83;;
19854;SDS011;10088;47.946;2.532;2023-05-10T13:34:08;5.60;;;1.33;;
19854;SDS011;10088;47.946;2.532;2023-05-10T13:36:33;5.93;;;1.43;;
19854;SDS011;10088;47.946;2.532;2023-05-10T13:38:58;4.97;;;1.60;;
19854;SDS011;10088;47.946;2.532;2023-05-10T13:41:26;3.33;;;0.90;;
19854;SDS011;10088;47.946;2.532;2023-05-10T13:43:51;4.20;;;1.30;;
19854;SDS011;10088;47.946;2.532;2023-05-10T13:46:16;3.43;;;1.03;;
19854;SDS011;10088;47.946;2.532;2023-05-10T13:48:41;3.30;;;1.13;;
19854;SDS011;10088;47.946;2.532;2023-05-10T13:51:07;6.27;;;1.80;;
19854;SDS011;10088;47.946;2.532;2023-05-10T13:53:32;4.50;;;1.37;;
19854;SDS011;10088;47.946;2.532;2023-05-10T13:55:58;4.00;;;0.83;;
19854;SDS011;10088;47.946;2.532;2023-05-10T13:58:23;3.10;;;1.20;;
19854;SDS011;10088;47.946;2.532;2023-05-10T14:00:48;3.97;;;1.20;;
19854;SDS011;10088;47.946;2.532;2023-05-10T14:03:14;4.00;;;1.07;;
19854;SDS011;10088;47.946;2.532;2023-05-10T14:05:39;4.67;;;1.47;;
19854;SDS011;10088;47.946;2.532;2023-05-10T14:08:04;3.43;;;1.20;;
19854;SDS011;10088;47.946;2.532;2023-05-10T14:10:29;5.60;;;1.43;;
19854;SDS011;10088;47.946;2.532;2023-05-10T14:12:55;3.47;;;1.10;;
19854;SDS011;10088;47.946;2.532;2023-05-10T14:15:20;4.60;;;1.30;;
19854;SDS011;10088;47.946;2.532;2023-05-10T14:17:46;4.13;;;1.47;;
19854;SDS011;10088;47.946;2.532;2023-05-10T14:20:11;3.63;;;1.47;;
19854;SDS011;10088;47.946;2.532;2023-05-10T14:22:36;2.87;;;0.90;;
19854;SDS011;10088;47.946;2.532;2023-05-10T14:25:01;3.43;;;1.50;;
19854;SDS011;10088;47.946;2.532;2023-05-10T14:27:27;5.37;;;1.50;;
19854;SDS011;10088;47.946;2.532;2023-05-10T14:29:52;3.50;;;1.10;;
19854;SDS011;10088;47.946;2.532;2023-05-10T14:32:18;1.60;;;1.00;;
19854;SDS011;10088;47.946;2.532;2023-05-10T14:34:43;1.80;;;0.93;;
19854;SDS011;10088;47.946;2.532;2023-05-10T14:37:09;2.03;;;0.60;;
19854;SDS011;10088;47.946;2.532;2023-05-10T14:39:35;2.30;;;0.73;;
19854;SDS011;10088;47.946;2.532;2023-05-10T14:42:00;2.40;;;0.83;;
19854;SDS011;10088;47.946;2.532;2023-05-10T14:44:25;1.77;;;0.67;;
19854;SDS011;10088;47.946;2.532;2023-05-10T14:46:51;2.27;;;0.70;;
19854;SDS011;10088;47.946;2.532;2023-05-10T14:49:16;1.40;;;0.70;;
19854;SDS011;10088;47.946;2.532;2023-05-10T14:51:42;1.27;;;0.67;;
19854;SDS011;10088;47.946;2.532;2023-05-10T14:54:07;1.53;;;0.60;;
19854;SDS011;10088;47.946;2.532;2023-05-10T14:56:32;3.97;;;0.60;;
19854;SDS011;10088;47.946;2.532;2023-05-10T14:58:58;1.20;;;0.40;;
19854;SDS011;10088;47.946;2.532;2023-05-10T15:01:24;3.73;;;0.40;;
19854;SDS011;10088;47.946;2.532;2023-05-10T15:03:49;1.00;;;0.53;;
19854;SDS011;10088;47.946;2.532;2023-05-10T15:06:14;0.87;;;0.50;;
19854;SDS011;10088;47.946;2.532;2023-05-10T15:08:41;1.80;;;0.80;;
19854;SDS011;10088;47.946;2.532;2023-05-10T15:11:06;1.50;;;0.60;;
19854;SDS011;10088;47.946;2.532;2023-05-10T15:13:31;1.07;;;0.40;;